createdAt,value
2022-09-28T00:01:57.433Z,98677.22
2022-09-28T00:04:27.627Z,98676.22
2022-09-28T00:06:56.321Z,98677.97
2022-09-28T00:09:24.836Z,98682.56
2022-09-28T00:11:54.156Z,98689.19
2022-09-28T00:14:22.920Z,98671.16
2022-09-28T00:16:51.598Z,98679.56
2022-09-28T00:19:20.212Z,98682.63
2022-09-28T00:21:50.299Z,98684.44
2022-09-28T00:24:22.998Z,98673.53
2022-09-28T00:26:56.986Z,98677.59
2022-09-28T00:29:28.758Z,98683.81
2022-09-28T00:32:03.028Z,98683.47
2022-09-28T00:34:36.167Z,98677.97
2022-09-28T00:37:11.304Z,98673.38
2022-09-28T00:39:42.318Z,98668.81
2022-09-28T00:42:17.469Z,98675.41
2022-09-28T00:44:50.989Z,98678.63
2022-09-28T00:47:51.556Z,98676.97
2022-09-28T00:50:30.038Z,98676.50
2022-09-28T00:53:07.560Z,98668.00
2022-09-28T00:55:48.398Z,98677.63
2022-09-28T00:58:27.525Z,98679.13
2022-09-28T01:01:00.044Z,98675.56
2022-09-28T01:03:31.051Z,98676.38
2022-09-28T01:06:05.617Z,98672.22
2022-09-28T01:08:39.649Z,98669.19
2022-09-28T01:11:08.712Z,98661.66
2022-09-28T01:13:38.730Z,98661.03
2022-09-28T01:16:24.614Z,98658.38
2022-09-28T01:19:07.960Z,98661.94
2022-09-28T01:21:51.468Z,98654.66
2022-09-28T01:24:41.775Z,98654.50
2022-09-28T01:27:21.740Z,98654.72
2022-09-28T01:30:03.702Z,98650.53
2022-09-28T01:32:47.187Z,98640.75
2022-09-28T01:35:24.787Z,98635.13
2022-09-28T01:38:01.596Z,98640.13
2022-09-28T01:40:34.620Z,98633.81
2022-09-28T01:43:10.510Z,98629.00
2022-09-28T01:45:46.287Z,98636.66
2022-09-28T01:48:22.465Z,98646.69
2022-09-28T01:50:58.803Z,98644.22
2022-09-28T01:53:36.591Z,98643.41
2022-09-28T01:56:17.939Z,98645.50
2022-09-28T01:58:56.254Z,98643.16
2022-09-28T02:01:33.796Z,98649.84
2022-09-28T02:04:11.310Z,98652.31
2022-09-28T02:06:47.748Z,98660.50
2022-09-28T02:09:24.841Z,98660.63
2022-09-28T02:12:03.563Z,98656.06
2022-09-28T02:14:40.479Z,98656.59
2022-09-28T02:17:11.177Z,98653.78
2022-09-28T02:19:41.367Z,98651.19
2022-09-28T02:22:25.818Z,98658.13
2022-09-28T02:25:00.815Z,98654.53
2022-09-28T02:27:40.414Z,98642.06
2022-09-28T02:30:12.596Z,98648.66
2022-09-28T02:32:47.641Z,98654.59
2022-09-28T02:35:19.825Z,98647.56
2022-09-28T02:37:50.065Z,98654.31
2022-09-28T02:40:22.979Z,98650.06
2022-09-28T02:43:03.096Z,98638.28
2022-09-28T02:45:52.493Z,98650.88
2022-09-28T02:49:04.924Z,98647.56
2022-09-28T02:51:57.890Z,98654.31
2022-09-28T02:55:02.199Z,98649.88
2022-09-28T02:57:48.432Z,98643.66
2022-09-28T03:00:22.973Z,98645.19
2022-09-28T03:03:10.271Z,98647.63
2022-09-28T03:05:53.744Z,98642.25
2022-09-28T03:08:30.591Z,98657.19
2022-09-28T03:11:05.690Z,98648.63
2022-09-28T03:13:36.334Z,98644.56
2022-09-28T03:16:13.908Z,98648.03
2022-09-28T03:18:46.752Z,98647.34
2022-09-28T03:21:16.825Z,98641.81
2022-09-28T03:23:47.415Z,98633.97
2022-09-28T03:26:19.887Z,98647.50
2022-09-28T03:28:48.585Z,98646.38
2022-09-28T03:31:23.919Z,98647.22
2022-09-28T03:33:54.380Z,98649.84
2022-09-28T03:36:23.818Z,98650.66
2022-09-28T03:38:55.099Z,98650.38
2022-09-28T03:41:27.755Z,98651.50
2022-09-28T03:43:56.778Z,98651.66
2022-09-28T03:46:27.635Z,98651.72
2022-09-28T03:49:01.375Z,98655.31
2022-09-28T03:51:30.933Z,98655.00
2022-09-28T03:53:59.607Z,98655.44
2022-09-28T03:56:28.500Z,98654.00
2022-09-28T03:58:57.057Z,98658.41
2022-09-28T04:01:25.792Z,98653.75
2022-09-28T04:03:56.186Z,98665.03
2022-09-28T04:06:27.724Z,98663.84
2022-09-28T04:08:56.543Z,98661.34
2022-09-28T04:11:25.253Z,98662.56
2022-09-28T04:13:53.787Z,98674.63
2022-09-28T04:16:22.959Z,98664.81
2022-09-28T04:19:00.134Z,98671.28
2022-09-28T04:21:59.432Z,98670.69
2022-09-28T04:24:28.091Z,98670.22
2022-09-28T04:27:16.615Z,98673.63
2022-09-28T04:29:44.455Z,98676.13
2022-09-28T04:32:15.123Z,98671.16
2022-09-28T04:34:44.480Z,98672.94
2022-09-28T04:37:15.208Z,98662.44
2022-09-28T04:39:48.051Z,98663.72
2022-09-28T04:42:19.281Z,98665.19
2022-09-28T04:44:48.269Z,98659.38
2022-09-28T04:47:16.860Z,98666.81
2022-09-28T04:50:11.845Z,98670.59
2022-09-28T04:53:03.310Z,98673.25
2022-09-28T04:55:32.638Z,98664.00
2022-09-28T04:58:02.479Z,98671.97
2022-09-28T05:00:35.946Z,98664.66
2022-09-28T05:03:25.415Z,98669.16
2022-09-28T05:06:17.015Z,98658.19
2022-09-28T05:08:48.725Z,98668.50
2022-09-28T05:11:19.890Z,98673.78
2022-09-28T05:13:50.396Z,98670.53
2022-09-28T05:16:20.553Z,98664.44
2022-09-28T05:19:07.656Z,98664.34
2022-09-28T05:21:36.288Z,98678.72
2022-09-28T05:24:07.698Z,98681.38
2022-09-28T05:26:39.213Z,98679.69
2022-09-28T05:29:09.760Z,98680.72
2022-09-28T05:31:41.571Z,98683.09
2022-09-28T05:34:18.867Z,98677.44
2022-09-28T05:36:48.299Z,98676.16
2022-09-28T05:39:18.312Z,98678.19
2022-09-28T05:41:47.191Z,98681.13
2022-09-28T05:44:16.023Z,98673.66
2022-09-28T05:46:45.038Z,98675.59
2022-09-28T05:49:15.497Z,98685.25
2022-09-28T05:51:44.302Z,98689.88
2022-09-28T05:54:13.008Z,98699.09
2022-09-28T05:56:47.137Z,98699.13
2022-09-28T05:59:16.696Z,98697.81
2022-09-28T06:01:45.424Z,98696.56
2022-09-28T06:04:16.192Z,98701.63
2022-09-28T06:06:46.045Z,98704.03
2022-09-28T06:09:15.097Z,98709.06
2022-09-28T06:11:53.482Z,98709.91
2022-09-28T06:14:39.762Z,98707.28
2022-09-28T06:17:08.483Z,98708.09
2022-09-28T06:19:37.159Z,98720.00
2022-09-28T06:22:24.479Z,98712.09
2022-09-28T06:25:00.925Z,98720.78
2022-09-28T06:27:31.117Z,98716.06
2022-09-28T06:30:00.908Z,98713.25
2022-09-28T06:32:30.455Z,98712.56
2022-09-28T06:34:59.636Z,98718.03
2022-09-28T06:37:28.966Z,98708.94
2022-09-28T06:39:58.183Z,98714.59
2022-09-28T06:42:27.028Z,98718.09
2022-09-28T06:45:30.448Z,98713.53
2022-09-28T06:48:13.473Z,98718.94
2022-09-28T06:50:43.743Z,98722.13
2022-09-28T06:53:30.373Z,98729.31
2022-09-28T06:56:16.719Z,98726.16
2022-09-28T06:58:46.518Z,98730.06
2022-09-28T07:01:16.636Z,98736.22
2022-09-28T07:03:57.883Z,98725.69
2022-09-28T07:06:48.408Z,98731.28
2022-09-28T07:09:50.320Z,98741.31
2022-09-28T07:12:32.274Z,98738.13
2022-09-28T07:15:05.032Z,98733.69
2022-09-28T07:17:49.496Z,98746.56
2022-09-28T07:20:25.126Z,98740.03
2022-09-28T07:23:01.375Z,98744.44
2022-09-28T07:25:56.607Z,98738.44
2022-09-28T07:28:51.657Z,98730.75
2022-09-28T07:31:32.296Z,98748.94
2022-09-28T07:34:24.988Z,98752.69
2022-09-28T07:37:06.589Z,98750.06
2022-09-28T07:39:56.018Z,98746.63
2022-09-28T07:42:24.824Z,98742.34
2022-09-28T07:44:53.353Z,98744.13
2022-09-28T07:47:30.902Z,98746.19
2022-09-28T07:50:27.662Z,98755.75
2022-09-28T07:53:25.146Z,98765.53
2022-09-28T07:56:10.124Z,98765.09
2022-09-28T07:58:55.170Z,98758.09
2022-09-28T08:01:44.126Z,98750.13
2022-09-28T08:04:15.524Z,98768.16
2022-09-28T08:06:48.383Z,98768.75
2022-09-28T08:09:17.517Z,98774.78
2022-09-28T08:12:06.196Z,98770.31
2022-09-28T08:14:37.677Z,98780.41
2022-09-28T08:17:29.693Z,98774.84
2022-09-28T08:20:18.974Z,98781.69
2022-09-28T08:22:49.658Z,98776.00
2022-09-28T08:25:18.290Z,98778.28
2022-09-28T08:27:47.697Z,98777.91
2022-09-28T08:30:16.962Z,98777.53
2022-09-28T08:33:08.664Z,98771.63
2022-09-28T08:36:06.117Z,98778.06
2022-09-28T08:39:05.740Z,98776.31
2022-09-28T08:42:17.074Z,98779.19
2022-09-28T08:45:14.818Z,98784.66
2022-09-28T08:48:20.821Z,98783.59
2022-09-28T08:51:18.078Z,98780.44
2022-09-28T08:54:12.044Z,98771.84
2022-09-28T08:56:55.454Z,98780.22
2022-09-28T08:59:32.539Z,98780.53
2022-09-28T09:02:19.273Z,98780.00
2022-09-28T09:04:49.892Z,98775.13
2022-09-28T09:07:50.884Z,98772.88
2022-09-28T09:10:48.687Z,98776.75
2022-09-28T09:14:20.964Z,98777.47
2022-09-28T09:17:04.344Z,98782.94
2022-09-28T09:19:56.535Z,98773.03
2022-09-28T09:22:42.734Z,98776.97
2022-09-28T09:25:22.572Z,98770.75
2022-09-28T09:28:30.348Z,98786.56
2022-09-28T09:31:13.642Z,98778.63
2022-09-28T09:34:31.764Z,98779.34
2022-09-28T09:37:56.512Z,98780.50
2022-09-28T09:40:58.490Z,98783.66
2022-09-28T09:44:12.153Z,98791.84
2022-09-28T09:47:08.068Z,98794.66
2022-09-28T09:49:58.984Z,98798.38
2022-09-28T09:52:37.030Z,98799.00
2022-09-28T09:55:21.264Z,98805.34
2022-09-28T09:58:01.587Z,98808.00
2022-09-28T10:00:42.712Z,98803.88
2022-09-28T10:03:25.784Z,98795.09
2022-09-28T10:06:04.757Z,98790.75
2022-09-28T10:08:40.836Z,98796.22
2022-09-28T10:11:16.241Z,98802.34
2022-09-28T10:13:49.485Z,98801.44
2022-09-28T10:16:57.830Z,98802.31
2022-09-28T10:19:47.198Z,98813.28
2022-09-28T10:22:48.007Z,98806.09
2022-09-28T10:25:21.411Z,98801.69
2022-09-28T10:27:52.706Z,98796.84
2022-09-28T10:30:24.303Z,98800.25
2022-09-28T10:32:59.495Z,98798.72
2022-09-28T10:35:44.265Z,98799.69
2022-09-28T10:38:19.620Z,98809.75
2022-09-28T10:41:13.552Z,98796.75
2022-09-28T10:44:19.261Z,98800.00
2022-09-28T10:47:19.114Z,98800.88
2022-09-28T10:49:52.749Z,98797.94
2022-09-28T10:52:40.425Z,98804.66
2022-09-28T10:55:30.710Z,98817.00
2022-09-28T10:58:00.054Z,98809.34
2022-09-28T11:00:42.932Z,98792.66
2022-09-28T11:03:23.569Z,98792.34
2022-09-28T11:06:01.204Z,98783.59
2022-09-28T11:08:37.494Z,98790.34
2022-09-28T11:11:14.356Z,98785.91
2022-09-28T11:13:48.276Z,98786.06
2022-09-28T11:16:26.937Z,98796.97
2022-09-28T11:18:57.945Z,98797.41
2022-09-28T11:21:32.250Z,98796.13
2022-09-28T11:24:08.225Z,98797.41
2022-09-28T11:26:45.344Z,98790.38
2022-09-28T11:29:36.352Z,98795.34
2022-09-28T11:32:46.180Z,98794.19
2022-09-28T11:35:26.350Z,98780.69
2022-09-28T11:38:17.298Z,98792.56
2022-09-28T11:41:45.359Z,98792.16
2022-09-28T11:44:38.316Z,98786.31
2022-09-28T11:47:44.002Z,98790.94
2022-09-28T11:50:28.521Z,98798.06
2022-09-28T11:53:13.919Z,98806.84
2022-09-28T11:55:51.566Z,98806.84
2022-09-28T11:58:30.372Z,98807.53
2022-09-28T12:01:05.659Z,98811.41
2022-09-28T12:03:59.654Z,98799.88
2022-09-28T12:06:42.056Z,98802.38
2022-09-28T12:09:24.526Z,98801.22
2022-09-28T12:12:21.176Z,98801.00
2022-09-28T12:14:54.221Z,98804.50
2022-09-28T12:17:30.537Z,98807.25
2022-09-28T12:20:06.700Z,98811.56
2022-09-28T12:22:43.970Z,98808.09
2022-09-28T12:25:22.223Z,98800.72
2022-09-28T12:27:57.661Z,98797.31
2022-09-28T12:30:29.089Z,98806.66
2022-09-28T12:33:04.945Z,98795.72
2022-09-28T12:35:58.132Z,98790.50
2022-09-28T12:38:54.152Z,98791.53
2022-09-28T12:41:51.544Z,98790.91
2022-09-28T12:44:48.045Z,98794.81
2022-09-28T12:47:51.787Z,98787.53
2022-09-28T12:50:38.507Z,98788.00
2022-09-28T12:53:37.240Z,98792.16
2022-09-28T12:56:17.934Z,98787.88
2022-09-28T12:59:09.130Z,98795.31
2022-09-28T13:01:59.014Z,98784.00
2022-09-28T13:05:11.915Z,98786.69
2022-09-28T13:07:53.319Z,98780.69
2022-09-28T13:10:34.768Z,98776.47
2022-09-28T13:13:33.445Z,98762.91
2022-09-28T13:16:17.571Z,98773.75
2022-09-28T13:19:00.040Z,98762.66
2022-09-28T13:21:39.332Z,98769.19
2022-09-28T13:24:31.738Z,98776.41
2022-09-28T13:27:12.971Z,98769.22
2022-09-28T13:29:43.440Z,98773.22
2022-09-28T13:32:15.175Z,98763.03
2022-09-28T13:34:49.505Z,98763.97
2022-09-28T13:37:25.569Z,98760.44
2022-09-28T13:39:56.810Z,98759.09
2022-09-28T13:42:51.118Z,98765.56
2022-09-28T13:45:42.884Z,98765.72
2022-09-28T13:48:20.484Z,98769.34
2022-09-28T13:51:10.598Z,98771.00
2022-09-28T13:54:24.033Z,98769.84
2022-09-28T13:57:04.014Z,98775.13
2022-09-28T13:59:45.847Z,98769.31
2022-09-28T14:02:33.828Z,98767.38
2022-09-28T14:05:07.946Z,98767.34
2022-09-28T14:08:12.905Z,98768.22
2022-09-28T14:10:51.736Z,98764.84
2022-09-28T14:14:00.084Z,98771.16
2022-09-28T14:16:32.235Z,98769.47
2022-09-28T14:19:09.160Z,98774.25
2022-09-28T14:22:12.933Z,98769.97
2022-09-28T14:25:05.826Z,98767.28
2022-09-28T14:28:01.221Z,98763.03
2022-09-28T14:30:49.505Z,98763.34
2022-09-28T14:33:27.791Z,98764.84
2022-09-28T14:36:02.248Z,98762.53
2022-09-28T14:38:56.602Z,98769.03
2022-09-28T14:41:34.606Z,98770.84
2022-09-28T14:44:08.627Z,98773.16
2022-09-28T14:46:43.781Z,98774.91
2022-09-28T14:49:47.722Z,98773.94
2022-09-28T14:52:40.281Z,98766.28
2022-09-28T14:55:24.350Z,98766.63
2022-09-28T14:57:56.902Z,98781.97
2022-09-28T15:00:31.825Z,98774.72
2022-09-28T15:03:12.040Z,98781.97
2022-09-28T15:05:47.205Z,98781.94
2022-09-28T15:08:18.099Z,98787.75
2022-09-28T15:10:51.557Z,98785.91
2022-09-28T15:13:28.239Z,98778.22
2022-09-28T15:16:05.500Z,98794.66
2022-09-28T15:19:15.665Z,98790.44
2022-09-28T15:21:47.452Z,98787.59
2022-09-28T15:24:32.705Z,98789.63
2022-09-28T15:27:15.895Z,98787.03
2022-09-28T15:29:59.028Z,98776.81
2022-09-28T15:32:30.355Z,98776.09
2022-09-28T15:35:14.491Z,98766.16
2022-09-28T15:37:44.888Z,98780.31
2022-09-28T15:40:18.038Z,98778.97
2022-09-28T15:42:48.465Z,98780.84
2022-09-28T15:45:30.794Z,98777.88
2022-09-28T15:48:25.341Z,98777.16
2022-09-28T15:51:11.045Z,98765.88
2022-09-28T15:53:53.012Z,98762.88
2022-09-28T15:56:21.547Z,98774.72
2022-09-28T15:59:24.236Z,98770.44
2022-09-28T16:02:11.144Z,98783.31
2022-09-28T16:04:50.438Z,98781.47
2022-09-28T16:07:29.799Z,98787.84
2022-09-28T16:10:02.473Z,98775.97
2022-09-28T16:12:46.598Z,98766.53
2022-09-28T16:15:24.331Z,98765.72
2022-09-28T16:17:56.699Z,98757.00
2022-09-28T16:20:32.119Z,98752.50
2022-09-28T16:23:09.015Z,98751.31
2022-09-28T16:25:39.967Z,98755.38
2022-09-28T16:28:29.589Z,98755.53
2022-09-28T16:31:06.280Z,98758.47
2022-09-28T16:33:45.178Z,98756.97
2022-09-28T16:36:17.487Z,98756.72
2022-09-28T16:38:46.182Z,98749.81
2022-09-28T16:41:19.520Z,98742.91
2022-09-28T16:43:49.081Z,98746.97
2022-09-28T16:46:19.616Z,98748.09
2022-09-28T16:48:51.177Z,98748.78
2022-09-28T16:51:21.981Z,98748.59
2022-09-28T16:54:08.387Z,98763.59
2022-09-28T16:56:38.335Z,98761.22
2022-09-28T16:59:13.626Z,98776.53
2022-09-28T17:01:44.197Z,98755.53
2022-09-28T17:04:12.754Z,98747.34
2022-09-28T17:06:43.498Z,98757.22
2022-09-28T17:09:14.017Z,98756.50
2022-09-28T17:11:42.845Z,98749.47
2022-09-28T17:14:11.794Z,98743.03
2022-09-28T17:19:32.069Z,98739.97
2022-09-28T17:22:01.061Z,98742.81
2022-09-28T17:24:29.644Z,98747.13
2022-09-28T17:27:00.772Z,98748.81
2022-09-28T17:29:30.491Z,98740.66
2022-09-28T17:31:59.351Z,98761.88
2022-09-28T17:34:28.106Z,98756.25
2022-09-28T17:36:58.442Z,98770.06
2022-09-28T17:39:27.747Z,98771.50
2022-09-28T17:41:56.548Z,98773.31
2022-09-28T17:44:25.525Z,98768.66
2022-09-28T17:46:54.050Z,98774.94
2022-09-28T17:49:22.620Z,98775.84
2022-09-28T17:51:52.901Z,98781.34
2022-09-28T17:54:23.134Z,98775.44
2022-09-28T17:56:52.202Z,98782.78
2022-09-28T17:59:20.845Z,98783.63
2022-09-28T18:01:49.657Z,98785.00
2022-09-28T18:04:47.241Z,98795.81
2022-09-28T18:07:08.638Z,98789.56
2022-09-28T18:09:39.067Z,98803.41
2022-09-28T18:12:08.639Z,98812.53
2022-09-28T18:14:39.917Z,98817.06
2022-09-28T18:17:09.014Z,98816.63
2022-09-28T18:19:37.829Z,98823.72
2022-09-28T18:22:06.598Z,98834.97
2022-09-28T18:24:35.620Z,98836.13
2022-09-28T18:27:06.068Z,98843.50
2022-09-28T18:29:35.026Z,98842.47
2022-09-28T18:32:04.480Z,98842.69
2022-09-28T18:34:37.994Z,98859.34
2022-09-28T18:37:07.448Z,98858.38
2022-09-28T18:39:37.051Z,98859.75
2022-09-28T18:42:08.209Z,98855.44
2022-09-28T18:44:37.288Z,98863.50
2022-09-28T18:47:06.231Z,98864.91
2022-09-28T18:49:35.003Z,98866.41
2022-09-28T18:52:04.116Z,98870.59
2022-09-28T18:54:33.260Z,98867.81
2022-09-28T18:57:02.366Z,98860.63
2022-09-28T18:59:32.759Z,98861.16
2022-09-28T19:02:01.844Z,98870.00
2022-09-28T19:04:31.152Z,98859.50
2022-09-28T19:06:59.898Z,98864.22
2022-09-28T19:09:28.488Z,98861.22
2022-09-28T19:11:57.018Z,98858.75
2022-09-28T19:14:25.776Z,98854.47
2022-09-28T19:16:55.978Z,98847.56
2022-09-28T19:19:24.556Z,98845.34
2022-09-28T19:21:53.267Z,98834.03
2022-09-28T19:24:22.394Z,98828.50
2022-09-28T19:26:53.497Z,98814.00
2022-09-28T19:29:22.728Z,98792.28
2022-09-28T19:31:51.748Z,98804.97
2022-09-28T19:34:24.394Z,98820.31
2022-09-28T19:36:53.289Z,98800.41
2022-09-28T19:39:21.871Z,98807.59
2022-09-28T19:41:51.330Z,98803.19
2022-09-28T19:44:25.848Z,98805.41
2022-09-28T19:46:56.917Z,98803.88
2022-09-28T19:49:35.870Z,98794.06
2022-09-28T19:52:13.186Z,98799.47
2022-09-28T19:54:45.215Z,98803.88
2022-09-28T19:57:15.936Z,98799.59
2022-09-28T19:59:48.376Z,98806.09
2022-09-28T20:02:19.440Z,98809.28
2022-09-28T20:04:49.984Z,98814.66
2022-09-28T20:07:18.635Z,98813.41
2022-09-28T20:09:47.149Z,98822.94
2022-09-28T20:12:15.878Z,98814.38
2022-09-28T20:14:44.401Z,98820.00
2022-09-28T20:17:12.958Z,98821.25
2022-09-28T20:19:41.741Z,98825.25
2022-09-28T20:22:12.228Z,98826.34
2022-09-28T20:24:41.056Z,98827.84
2022-09-28T20:27:09.839Z,98815.81
2022-09-28T20:29:38.406Z,98814.56
2022-09-28T20:32:07.028Z,98814.81
2022-09-28T20:34:35.758Z,98817.56
2022-09-28T20:37:04.302Z,98810.13
2022-09-28T20:39:34.707Z,98805.38
2022-09-28T20:42:03.432Z,98803.16
2022-09-28T20:44:31.985Z,98807.84
2022-09-28T20:47:01.275Z,98815.41
2022-09-28T20:49:31.250Z,98815.69
2022-09-28T20:51:59.754Z,98821.56
2022-09-28T20:54:28.280Z,98818.00
2022-09-28T20:56:58.497Z,98813.13
2022-09-28T20:59:27.756Z,98814.13
2022-09-28T21:01:56.337Z,98809.63
2022-09-28T21:04:25.122Z,98810.31
2022-09-28T21:06:53.969Z,98814.19
2022-09-28T21:09:22.462Z,98810.75
2022-09-28T21:11:51.179Z,98813.75
2022-09-28T21:14:21.349Z,98811.38
2022-09-28T21:16:49.893Z,98813.06
2022-09-28T21:19:18.813Z,98816.63
2022-09-28T21:21:47.387Z,98816.19
2022-09-28T21:24:16.029Z,98812.44
2022-09-28T21:26:44.796Z,98816.44
2022-09-28T21:29:16.094Z,98817.28
2022-09-28T21:31:47.021Z,98815.19
2022-09-28T21:34:19.276Z,98815.44
2022-09-28T21:36:50.991Z,98810.31
2022-09-28T21:39:20.379Z,98812.25
2022-09-28T21:41:49.250Z,98818.13
2022-09-28T21:44:17.870Z,98816.03
2022-09-28T21:46:48.124Z,98827.88
2022-09-28T21:49:16.741Z,98831.81
2022-09-28T21:51:47.166Z,98832.66
2022-09-28T21:54:16.009Z,98838.84
2022-09-28T21:56:44.664Z,98845.69
2022-09-28T21:59:13.236Z,98841.00
2022-09-28T22:01:42.661Z,98845.97
2022-09-28T22:04:12.746Z,98845.06
2022-09-28T22:06:41.277Z,98855.81
2022-09-28T22:09:10.371Z,98852.78
2022-09-28T22:11:38.865Z,98853.88
2022-09-28T22:14:07.406Z,98853.22
2022-09-28T22:16:36.216Z,98868.47
2022-09-28T22:19:04.726Z,98871.34
2022-09-28T22:21:35.458Z,98873.03
2022-09-28T22:24:07.715Z,98871.28
2022-09-28T22:26:39.401Z,98865.69
2022-09-28T22:29:10.898Z,98855.16
2022-09-28T22:31:42.077Z,98870.13
2022-09-28T22:34:11.341Z,98868.56
2022-09-28T22:36:41.258Z,98869.75
2022-09-28T22:39:09.901Z,98857.97
2022-09-28T22:41:38.601Z,98857.50
2022-09-28T22:44:07.242Z,98860.72
2022-09-28T22:46:36.252Z,98870.34
2022-09-28T22:49:05.140Z,98872.38
2022-09-28T22:51:33.719Z,98872.03
2022-09-28T22:54:03.877Z,98870.00
2022-09-28T22:56:33.443Z,98863.13
2022-09-28T22:59:01.985Z,98864.41
2022-09-28T23:01:31.257Z,98868.19
2022-09-28T23:04:00.924Z,98870.13
2022-09-28T23:06:30.829Z,98856.09
2022-09-28T23:08:59.449Z,98862.84
2022-09-28T23:11:30.020Z,98866.44
2022-09-28T23:14:00.698Z,98868.38
2022-09-28T23:16:30.177Z,98871.56
2022-09-28T23:18:58.941Z,98873.84
2022-09-28T23:21:29.285Z,98874.44
2022-09-28T23:24:01.631Z,98884.53
2022-09-28T23:26:34.399Z,98877.03
2022-09-28T23:29:03.543Z,98878.84
2022-09-28T23:31:34.256Z,98889.78
2022-09-28T23:34:05.897Z,98886.91
2022-09-28T23:36:35.917Z,98895.63
2022-09-28T23:39:04.985Z,98895.63
2022-09-28T23:41:35.167Z,98896.09
2022-09-28T23:44:04.678Z,98902.84
2022-09-28T23:46:34.067Z,98913.91
2022-09-28T23:49:02.664Z,98906.06
2022-09-28T23:51:31.575Z,98916.41
2022-09-28T23:54:00.112Z,98912.84
2022-09-28T23:56:28.624Z,98914.53
2022-09-28T23:58:59.065Z,98915.47
